createdAt,value
2022-10-20T00:02:20.055Z,101678.25
2022-10-20T00:05:07.167Z,101669.59
2022-10-20T00:07:54.094Z,101684.50
2022-10-20T00:10:41.197Z,101681.88
2022-10-20T00:13:28.407Z,101653.25
2022-10-20T00:16:16.619Z,101692.53
2022-10-20T00:19:04.175Z,101685.50
2022-10-20T00:21:52.176Z,101687.28
2022-10-20T00:24:39.048Z,101699.69
2022-10-20T00:27:26.141Z,101682.09
2022-10-20T00:30:12.959Z,101674.28
2022-10-20T00:33:01.002Z,101688.31
2022-10-20T00:35:48.055Z,101691.00
2022-10-20T00:38:35.299Z,101686.63
2022-10-20T00:41:25.023Z,101685.88
2022-10-20T00:44:13.629Z,101691.16
2022-10-20T00:47:01.419Z,101613.88
2022-10-20T00:49:48.590Z,101696.50
2022-10-20T00:52:39.125Z,101690.41
2022-10-20T00:55:28.676Z,101704.53
2022-10-20T00:58:18.115Z,101702.75
2022-10-20T01:01:08.224Z,101696.88
2022-10-20T01:04:02.010Z,101706.41
2022-10-20T01:06:51.307Z,101702.88
2022-10-20T01:09:38.639Z,101702.97
2022-10-20T01:12:47.680Z,101698.59
2022-10-20T01:15:47.912Z,101707.41
2022-10-20T01:19:00.252Z,101705.69
2022-10-20T01:21:47.004Z,101708.41
2022-10-20T01:24:42.885Z,101712.03
2022-10-20T01:27:39.487Z,101717.34
2022-10-20T01:30:37.265Z,101719.16
2022-10-20T01:33:24.261Z,101721.00
2022-10-20T01:36:11.229Z,101723.69
2022-10-20T01:39:04.082Z,101726.44
2022-10-20T01:41:59.682Z,101635.13
2022-10-20T01:44:48.708Z,101722.19
2022-10-20T01:47:37.314Z,101725.78
2022-10-20T01:50:26.944Z,101719.72
2022-10-20T01:53:18.253Z,101675.38
2022-10-20T01:56:05.111Z,101726.09
2022-10-20T01:59:21.759Z,101729.69
2022-10-20T02:02:26.137Z,101699.16
2022-10-20T02:05:19.189Z,101733.31
2022-10-20T02:08:06.147Z,101732.53
2022-10-20T02:11:07.417Z,101745.75
2022-10-20T02:13:57.576Z,101740.50
2022-10-20T02:16:54.428Z,101741.50
2022-10-20T02:19:44.673Z,101740.72
2022-10-20T02:22:35.336Z,101752.25
2022-10-20T02:25:22.865Z,101739.03
2022-10-20T02:28:11.949Z,101743.56
2022-10-20T02:31:01.057Z,101738.47
2022-10-20T02:33:49.412Z,101750.75
2022-10-20T02:36:39.457Z,101742.00
2022-10-20T02:39:27.396Z,101750.88
2022-10-20T02:42:14.290Z,101745.69
2022-10-20T02:45:01.177Z,101742.22
2022-10-20T02:47:48.126Z,101737.06
2022-10-20T02:50:35.031Z,101749.44
2022-10-20T02:53:22.579Z,101747.75
2022-10-20T02:55:49.492Z,101754.88
2022-10-20T02:58:16.373Z,101746.13
2022-10-20T03:01:03.323Z,101749.72
2022-10-20T03:03:50.389Z,101749.81
2022-10-20T03:06:37.707Z,101756.06
2022-10-20T03:09:24.610Z,101766.66
2022-10-20T03:12:11.639Z,101765.84
2022-10-20T03:14:58.503Z,101767.69
2022-10-20T03:17:45.348Z,101770.38
2022-10-20T03:20:32.265Z,101774.00
2022-10-20T03:23:20.171Z,101775.84
2022-10-20T03:26:08.039Z,101782.06
2022-10-20T03:28:55.031Z,101770.78
2022-10-20T03:31:42.041Z,101776.91
2022-10-20T03:34:29.100Z,101780.47
2022-10-20T03:37:16.139Z,101760.50
2022-10-20T03:40:03.474Z,101780.59
2022-10-20T03:42:50.472Z,101785.06
2022-10-20T03:45:37.511Z,101793.03
2022-10-20T03:48:24.547Z,101786.94
2022-10-20T03:51:11.472Z,101794.91
2022-10-20T03:53:58.532Z,101799.34
2022-10-20T03:56:46.289Z,101792.34
2022-10-20T03:59:33.202Z,101795.91
2022-10-20T04:02:20.268Z,101793.34
2022-10-20T04:05:07.073Z,101794.28
2022-10-20T04:07:54.187Z,101789.94
2022-10-20T04:10:41.095Z,101793.50
2022-10-20T04:13:27.959Z,101790.03
2022-10-20T04:16:14.900Z,101787.47
2022-10-20T04:19:01.840Z,101802.41
2022-10-20T04:21:48.760Z,101798.13
2022-10-20T04:24:35.880Z,101806.91
2022-10-20T04:27:23.123Z,101806.06
2022-10-20T04:30:10.044Z,101813.97
2022-10-20T04:32:56.944Z,101804.34
2022-10-20T04:35:43.950Z,101807.03
2022-10-20T04:38:30.885Z,101801.81
2022-10-20T04:41:20.283Z,101815.94
2022-10-20T04:44:11.728Z,101815.94
2022-10-20T04:46:58.665Z,101821.25
2022-10-20T04:49:45.559Z,101815.22
2022-10-20T04:52:32.524Z,101826.59
2022-10-20T04:55:19.522Z,101803.97
2022-10-20T04:58:06.769Z,101833.72
2022-10-20T05:00:53.840Z,101832.84
2022-10-20T05:03:40.887Z,101841.66
2022-10-20T05:06:49.254Z,101840.81
2022-10-20T05:09:36.795Z,101832.94
2022-10-20T05:12:23.948Z,101740.56
2022-10-20T05:15:10.823Z,101833.00
2022-10-20T06:23:00.600Z,101880.03
2022-10-20T06:25:47.370Z,101883.53
2022-10-20T06:28:34.387Z,101879.13
2022-10-20T06:31:30.844Z,101880.00
2022-10-20T06:34:18.887Z,101880.00
2022-10-20T06:37:07.441Z,101887.88
2022-10-20T06:39:54.517Z,101880.84
2022-10-20T06:42:41.292Z,101894.88
2022-10-20T06:45:28.875Z,101886.09
2022-10-20T06:48:15.692Z,101899.25
2022-10-20T06:51:02.679Z,101899.22
2022-10-20T06:53:51.265Z,101913.22
2022-10-20T06:56:41.924Z,101899.16
2022-10-20T06:59:28.961Z,101847.59
2022-10-20T07:02:16.111Z,101907.91
2022-10-20T07:05:03.212Z,101902.66
2022-10-20T07:07:50.352Z,101916.63
2022-10-20T07:10:37.367Z,101908.69
2022-10-20T07:13:24.420Z,101927.09
2022-10-20T07:16:13.731Z,101912.19
2022-10-20T07:19:01.376Z,101899.88
2022-10-20T07:21:49.355Z,101834.44
2022-10-20T07:24:36.553Z,101929.59
2022-10-20T07:27:23.563Z,101939.22
2022-10-20T07:30:10.796Z,101936.53
2022-10-20T07:32:57.733Z,101940.91
2022-10-20T07:35:24.898Z,101937.38
2022-10-20T07:38:11.722Z,101913.78
2022-10-20T07:41:00.687Z,101944.34
2022-10-20T07:43:48.384Z,101937.28
2022-10-20T07:46:36.403Z,101928.53
2022-10-20T07:52:31.363Z,101937.16
2022-10-20T07:55:37.563Z,101945.88
2022-10-20T07:58:25.518Z,101940.66
2022-10-20T08:01:12.380Z,101947.63
2022-10-20T08:03:59.563Z,101883.81
2022-10-20T08:06:46.922Z,101901.25
2022-10-20T08:09:34.138Z,101949.16
2022-10-20T08:12:21.352Z,101948.25
2022-10-20T08:14:59.431Z,101943.81
2022-10-20T08:17:43.395Z,101956.06
2022-10-20T08:20:40.656Z,101962.16
2022-10-20T08:23:27.473Z,101943.66
2022-10-20T08:26:16.232Z,101940.97
2022-10-20T08:29:03.114Z,101934.81
2022-10-20T08:31:50.446Z,101951.41
2022-10-20T08:34:37.347Z,101934.72
2022-10-20T08:37:24.442Z,101946.91
2022-10-20T08:40:11.290Z,101953.00
2022-10-20T08:43:02.203Z,101958.25
2022-10-20T08:45:49.086Z,101965.19
2022-10-20T08:48:42.535Z,101956.31
2022-10-20T08:51:42.556Z,101940.59
2022-10-20T08:54:34.401Z,101966.72
2022-10-20T08:57:21.354Z,101957.97
2022-10-20T09:00:11.385Z,101960.41
2022-10-20T09:02:58.362Z,101917.63
2022-10-20T09:05:48.217Z,101873.91
2022-10-20T09:08:35.522Z,101944.47
2022-10-20T09:11:22.716Z,101960.09
2022-10-20T09:14:09.981Z,101970.56
2022-10-20T09:17:01.087Z,101878.91
2022-10-20T09:19:48.699Z,101974.78
2022-10-20T09:22:37.171Z,101972.94
2022-10-20T09:25:24.329Z,101977.22
2022-10-20T09:27:52.283Z,101977.13
2022-10-20T09:30:23.050Z,101983.25
2022-10-20T09:33:10.660Z,101976.91
2022-10-20T09:35:59.820Z,101971.53
2022-10-20T09:38:48.431Z,101967.00
2022-10-20T09:41:41.568Z,101954.53
2022-10-20T09:44:37.333Z,101859.34
2022-10-20T09:47:24.447Z,101966.56
2022-10-20T09:50:17.807Z,101962.00
2022-10-20T09:53:08.770Z,101954.03
2022-10-20T09:55:42.481Z,101954.72
2022-10-20T09:59:00.219Z,101959.81
2022-10-20T10:01:48.110Z,101958.78
2022-10-20T10:04:51.892Z,101948.09
2022-10-20T10:07:47.866Z,101954.97
2022-10-20T10:10:37.827Z,101946.19
2022-10-20T10:13:25.250Z,101959.97
2022-10-20T10:16:30.005Z,101960.75
2022-10-20T10:19:23.817Z,101964.13
2022-10-20T10:22:17.409Z,101915.03
2022-10-20T10:25:09.626Z,101937.47
2022-10-20T10:27:57.003Z,101943.31
2022-10-20T10:30:50.976Z,101919.75
2022-10-20T10:33:46.613Z,101879.38
2022-10-20T10:36:28.617Z,101938.41
2022-10-20T10:39:15.958Z,101940.91
2022-10-20T10:42:21.754Z,101931.06
2022-10-20T10:45:22.754Z,101924.66
2022-10-20T10:48:44.971Z,101923.63
2022-10-20T10:51:49.161Z,101927.00
2022-10-20T10:55:05.079Z,101922.31
2022-10-20T10:58:02.506Z,101935.38
2022-10-20T11:00:58.501Z,101926.38
2022-10-20T11:04:19.380Z,101921.72
2022-10-20T11:07:17.277Z,101924.16
2022-10-20T11:10:12.948Z,101927.44
2022-10-20T11:13:24.395Z,101920.19
2022-10-20T11:16:13.633Z,101923.50
2022-10-20T11:19:33.878Z,101918.00
2022-10-20T11:22:23.644Z,101917.88
2022-10-20T11:25:10.615Z,101912.38
2022-10-20T11:27:59.021Z,101913.09
2022-10-20T11:30:47.045Z,101914.69
2022-10-20T11:33:41.500Z,101919.03
2022-10-20T11:36:39.378Z,101916.22
2022-10-20T11:39:37.713Z,101908.13
2022-10-20T11:43:06.588Z,101914.97
2022-10-20T11:46:17.490Z,101904.13
2022-10-20T11:49:09.946Z,101905.81
2022-10-20T11:52:08.677Z,101910.19
2022-10-20T11:55:01.325Z,101900.25
2022-10-20T11:58:01.736Z,101886.91
2022-10-20T12:01:10.301Z,101894.72
2022-10-20T12:04:10.049Z,101891.03
2022-10-20T12:06:59.952Z,101888.28
2022-10-20T12:10:38.412Z,101867.38
2022-10-20T12:13:43.563Z,101891.66
2022-10-20T12:16:30.472Z,101894.16
2022-10-20T12:19:57.661Z,101884.38
2022-10-20T12:22:50.544Z,101886.91
2022-10-20T12:25:46.118Z,101867.53
2022-10-20T12:28:44.791Z,101874.25
2022-10-20T12:31:32.005Z,101869.81
2022-10-20T12:34:21.425Z,101867.06
2022-10-20T12:37:08.712Z,101875.88
2022-10-20T12:39:56.011Z,101864.25
2022-10-20T12:42:56.128Z,101868.53
2022-10-20T12:45:47.455Z,101860.44
2022-10-20T12:48:42.612Z,101866.53
2022-10-20T12:51:38.956Z,101832.22
2022-10-20T12:54:39.633Z,101850.28
2022-10-20T12:57:56.980Z,101859.88
2022-10-20T13:00:43.999Z,101857.03
2022-10-20T13:04:08.991Z,101849.78
2022-10-20T13:07:00.604Z,101839.91
2022-10-20T13:09:48.120Z,101846.84
2022-10-20T13:12:46.353Z,101848.50
2022-10-20T13:15:38.252Z,101788.50
2022-10-20T13:18:38.160Z,101844.75
2022-10-20T13:21:45.042Z,101850.81
2022-10-20T13:24:36.214Z,101850.72
2022-10-20T13:27:29.676Z,101826.16
2022-10-20T13:30:17.021Z,101798.31
2022-10-20T13:33:34.244Z,101781.66
2022-10-20T13:36:52.664Z,101830.06
2022-10-20T13:40:00.851Z,101827.56
2022-10-20T13:43:38.842Z,101839.72
2022-10-20T13:46:28.641Z,101838.78
2022-10-20T13:49:50.477Z,101846.72
2022-10-20T13:52:40.506Z,101840.50
2022-10-20T13:55:35.393Z,101727.69
2022-10-20T13:58:40.244Z,101828.97
2022-10-20T14:01:39.126Z,101831.63
2022-10-20T14:04:46.214Z,101832.50
2022-10-20T14:07:33.707Z,101817.38
2022-10-20T14:10:20.643Z,101820.16
2022-10-20T14:13:07.948Z,101826.28
2022-10-20T14:15:56.950Z,101824.50
2022-10-20T14:18:50.367Z,101820.09
2022-10-20T14:21:39.149Z,101828.06
2022-10-20T14:24:28.957Z,101817.44
2022-10-20T14:27:18.311Z,101825.47
2022-10-20T14:30:06.223Z,101821.97
2022-10-20T14:32:58.952Z,101830.84
2022-10-20T14:36:01.136Z,101833.56
2022-10-20T14:38:56.260Z,101830.06
2022-10-20T14:41:54.649Z,101830.97
2022-10-20T14:44:44.329Z,101840.78
2022-10-20T14:47:34.894Z,101853.28
2022-10-20T14:50:22.410Z,101848.88
2022-10-20T14:53:09.455Z,101855.09
2022-10-20T14:55:39.909Z,101851.59
2022-10-20T14:58:31.356Z,101847.22
2022-10-20T15:01:37.894Z,101852.63
2022-10-20T15:04:36.294Z,101847.34
2022-10-20T15:07:52.138Z,101846.56
2022-10-20T15:10:43.487Z,101849.28
2022-10-20T15:13:44.848Z,101844.91
2022-10-20T15:17:11.854Z,101848.56
2022-10-20T15:19:58.816Z,101855.72
2022-10-20T15:22:46.008Z,101845.28
2022-10-20T15:25:32.988Z,101849.91
2022-10-20T15:28:20.053Z,101847.31
2022-10-20T15:31:03.244Z,101806.72
2022-10-20T15:33:50.144Z,101842.53
2022-10-20T15:36:44.570Z,101851.34
2022-10-20T15:39:31.793Z,101848.78
2022-10-20T15:42:18.989Z,101853.28
2022-10-20T15:44:46.102Z,101844.63
2022-10-20T15:47:33.080Z,101851.03
2022-10-20T15:50:21.796Z,101844.91
2022-10-20T15:52:51.296Z,101806.69
2022-10-20T15:55:43.868Z,101834.56
2022-10-20T15:58:30.940Z,101832.06
2022-10-20T16:01:17.896Z,101825.13
2022-10-20T16:04:06.479Z,101815.56
2022-10-20T16:06:56.560Z,101816.69
2022-10-20T16:09:46.162Z,101822.84
2022-10-20T16:12:33.068Z,101820.41
2022-10-20T16:15:20.627Z,101816.84
2022-10-20T16:18:09.886Z,101816.06
2022-10-20T16:20:57.232Z,101818.84
2022-10-20T16:23:45.037Z,101778.25
2022-10-20T16:26:33.996Z,101819.09
2022-10-20T16:29:20.951Z,101817.63
2022-10-20T16:31:48.652Z,101809.69
2022-10-20T16:34:35.548Z,101816.00
2022-10-20T16:37:22.685Z,101813.50
2022-10-20T16:40:09.539Z,101815.41
2022-10-20T16:42:56.579Z,101811.13
2022-10-20T16:45:43.690Z,101817.44
2022-10-20T16:48:30.560Z,101814.03
2022-10-20T16:51:17.480Z,101820.50
2022-10-20T16:54:04.699Z,101820.53
2022-10-20T16:56:51.665Z,101817.25
2022-10-20T16:59:38.634Z,101830.56
2022-10-20T17:02:25.732Z,101831.59
2022-10-20T17:05:12.612Z,101828.16
2022-10-20T17:07:59.476Z,101825.69
2022-10-20T17:10:46.408Z,101831.16
2022-10-20T17:13:33.326Z,101837.50
2022-10-20T17:16:32.539Z,101827.94
2022-10-20T17:19:20.968Z,101819.25
2022-10-20T17:22:08.119Z,101829.16
2022-10-20T17:24:55.080Z,101832.81
2022-10-20T17:27:42.163Z,101828.56
2022-10-20T17:30:29.687Z,101825.16
2022-10-20T17:33:16.958Z,101820.91
2022-10-20T17:36:08.425Z,101792.28
2022-10-20T17:38:55.765Z,101746.28
2022-10-20T17:41:43.712Z,101805.56
2022-10-20T17:44:30.770Z,101798.63
2022-10-20T17:47:17.616Z,101800.44
2022-10-20T17:50:04.598Z,101794.47
2022-10-20T17:52:51.542Z,101751.13
2022-10-20T17:55:38.577Z,101797.38
2022-10-20T17:58:25.558Z,101778.22
2022-10-20T18:01:12.636Z,101795.03
2022-10-20T18:04:00.737Z,101787.25
2022-10-20T18:06:49.607Z,101782.06
2022-10-20T18:09:38.055Z,101787.53
2022-10-20T18:12:25.089Z,101786.78
2022-10-20T18:15:11.981Z,101797.53
2022-10-20T18:17:58.994Z,101795.91
2022-10-20T18:20:46.061Z,101793.41
2022-10-20T18:23:32.997Z,101800.56
2022-10-20T18:26:31.578Z,101798.06
2022-10-20T18:29:19.706Z,101800.81
2022-10-20T18:32:07.307Z,101802.72
2022-10-20T18:34:54.313Z,101809.94
2022-10-20T18:37:41.250Z,101810.03
2022-10-20T18:40:28.993Z,101799.59
2022-10-20T18:43:15.912Z,101802.34
2022-10-20T18:46:11.601Z,101716.34
2022-10-20T18:49:00.572Z,101810.53
2022-10-20T18:51:47.744Z,101818.53
2022-10-20T18:54:36.207Z,101807.22
2022-10-20T18:57:24.263Z,101808.19
2022-10-20T19:00:11.134Z,101810.09
2022-10-20T19:03:00.838Z,101804.88
2022-10-20T19:05:48.649Z,101803.22
2022-10-20T19:08:35.845Z,101806.88
2022-10-20T19:11:25.526Z,101792.09
2022-10-20T19:14:13.057Z,101813.22
2022-10-20T19:17:02.303Z,101819.47
2022-10-20T19:19:49.332Z,101813.50
2022-10-20T19:22:16.287Z,101823.13
2022-10-20T19:25:03.344Z,101818.78
2022-10-20T19:27:50.127Z,101817.97
2022-10-20T19:30:37.241Z,101775.34
2022-10-20T19:33:24.574Z,101819.00
2022-10-20T19:36:11.656Z,101824.38
2022-10-20T19:38:58.479Z,101822.72
2022-10-20T19:41:46.230Z,101815.72
2022-10-20T19:44:33.672Z,101814.91
2022-10-20T19:47:20.795Z,101800.03
2022-10-20T19:50:07.617Z,101793.06
2022-10-20T19:52:57.949Z,101789.59
2022-10-20T19:55:45.832Z,101739.91
2022-10-20T19:58:32.910Z,101745.94
2022-10-20T20:01:19.862Z,101765.16
2022-10-20T20:04:06.927Z,101764.34
2022-10-20T20:06:59.630Z,101726.09
2022-10-20T20:09:51.571Z,101765.31
2022-10-20T20:12:38.776Z,101759.22
2022-10-20T20:15:26.089Z,101754.91
2022-10-20T20:18:12.956Z,101734.88
2022-10-20T20:21:01.243Z,101750.66
2022-10-20T20:23:58.696Z,101755.03
2022-10-20T20:26:51.521Z,101683.72
2022-10-20T20:29:38.414Z,101763.03
2022-10-20T20:32:25.567Z,101763.13
2022-10-20T20:35:12.589Z,101761.38
2022-10-20T20:37:59.456Z,101765.78
2022-10-20T20:40:46.504Z,101768.47
2022-10-20T20:43:33.388Z,101770.28
2022-10-20T20:46:28.810Z,101724.97
2022-10-20T20:49:16.183Z,101761.56
2022-10-20T20:52:03.127Z,101754.59
2022-10-20T20:54:50.097Z,101762.50
2022-10-20T20:57:37.493Z,101754.63
2022-10-20T21:00:25.430Z,101717.25
2022-10-20T21:03:12.428Z,101759.97
2022-10-20T21:05:59.337Z,101763.53
2022-10-20T21:08:46.295Z,101765.31
2022-10-20T21:11:38.936Z,101748.72
2022-10-20T21:14:25.852Z,101760.09
2022-10-20T21:17:13.291Z,101770.69
2022-10-20T21:20:00.231Z,101764.63
2022-10-20T21:22:47.260Z,101773.38
2022-10-20T21:25:34.400Z,101762.91
2022-10-20T21:28:21.241Z,101758.56
2022-10-20T21:31:08.156Z,101767.34
2022-10-20T21:33:56.590Z,101772.59
2022-10-20T21:36:45.080Z,101742.06
2022-10-20T21:39:34.363Z,101695.03
2022-10-20T21:42:21.495Z,101763.06
2022-10-20T21:45:09.352Z,101769.16
2022-10-20T21:47:56.368Z,101744.81
2022-10-20T21:50:43.358Z,101762.16
2022-10-20T21:53:30.249Z,101756.00
2022-10-20T21:56:18.720Z,101751.63
2022-10-20T21:59:05.571Z,101752.53
2022-10-20T22:01:52.936Z,101748.13
2022-10-20T22:04:41.920Z,101749.91
2022-10-20T22:07:28.771Z,101756.06
2022-10-20T22:10:15.707Z,101762.22
2022-10-20T22:13:02.703Z,101761.34
2022-10-20T22:15:49.767Z,101766.59
2022-10-20T22:18:36.840Z,101751.66
2022-10-20T22:21:29.299Z,101752.53
2022-10-20T22:24:17.568Z,101766.56
2022-10-20T22:27:15.393Z,101762.16
2022-10-20T22:30:12.193Z,101723.81
2022-10-20T22:32:59.121Z,101762.13
2022-10-20T22:35:46.231Z,101761.25
2022-10-20T22:38:33.301Z,101768.28
2022-10-20T22:41:21.166Z,101763.84
2022-10-20T22:44:08.104Z,101762.97
2022-10-20T22:46:55.231Z,101764.69
2022-10-20T22:49:42.156Z,101764.75
2022-10-20T22:52:29.655Z,101728.16
2022-10-20T22:55:16.564Z,101766.44
2022-10-20T22:58:10.641Z,101770.78
2022-10-20T23:01:00.976Z,101772.53
2022-10-20T23:03:48.180Z,101769.88
2022-10-20T23:06:38.758Z,101766.34
2022-10-20T23:09:25.774Z,101767.22
2022-10-20T23:12:12.739Z,101765.44
2022-10-20T23:14:59.676Z,101758.38
2022-10-20T23:17:46.686Z,101708.72
2022-10-20T23:20:33.802Z,101758.38
2022-10-20T23:23:20.742Z,101760.09
2022-10-20T23:26:10.452Z,101766.25
2022-10-20T23:28:58.658Z,101767.09
2022-10-20T23:31:45.659Z,101757.41
2022-10-20T23:37:24.665Z,101755.59
2022-10-20T23:40:11.668Z,101756.41
2022-10-20T23:42:58.895Z,101759.03
2022-10-20T23:45:46.099Z,101755.53
2022-10-20T23:48:33.296Z,101763.41
2022-10-20T23:51:20.240Z,101761.63
2022-10-20T23:54:07.361Z,101765.13
2022-10-20T23:56:54.276Z,101750.16
2022-10-20T23:59:41.260Z,101751.91
